Time;durP1;ratioP1;P1;durP2;ratioP2;P2;SDS_P1;SDS_P2;PMS_P1;PMS_P2;Temp;Humidity;BMP_temperature;BMP_pressure;BME280_temperature;BME280_humidity;BME280_pressure;Samples;Min_cycle;Max_cycle;Signal;HPM_P1;HPM_P2
2023/10/18 00:01:04;;;;;;;10.20;4.67;;;4.30;1.00;;;;;;5038163;28;20510;-73
2023/10/18 00:03:36;;;;;;;11.50;4.80;;;4.30;1.00;;;;;;5051733;28;20410;-73
2023/10/18 00:06:15;;;;;;;10.83;4.97;;;4.30;1.00;;;;;;5037012;28;20431;-73
2023/10/18 00:08:45;;;;;;;8.40;4.80;;;4.30;1.00;;;;;;5054918;28;20529;-72
2023/10/18 00:11:17;;;;;;;5.77;4.07;;;4.30;1.00;;;;;;5029302;28;20527;-73
2023/10/18 00:13:52;;;;;;;9.77;4.90;;;4.30;1.00;;;;;;5043065;28;20465;-73
2023/10/18 00:16:19;;;;;;;9.33;4.80;;;4.30;1.00;;;;;;5038372;28;20187;-73
2023/10/18 00:18:45;;;;;;;8.07;4.83;;;4.30;1.00;;;;;;5049931;28;20518;-73
2023/10/18 00:21:12;;;;;;;7.57;4.70;;;4.30;1.00;;;;;;5047631;28;20493;-72
2023/10/18 00:23:47;;;;;;;5.73;4.30;;;4.30;1.00;;;;;;5039183;28;20179;-81
2023/10/18 00:26:17;;;;;;;6.90;4.30;;;4.30;1.00;;;;;;5039725;28;20924;-82
2023/10/18 00:28:48;;;;;;;6.43;4.20;;;4.30;1.00;;;;;;5047436;28;20446;-82
2023/10/18 00:31:17;;;;;;;6.87;4.80;;;4.30;1.00;;;;;;5037915;28;20450;-82
2023/10/18 00:33:48;;;;;;;7.70;4.63;;;4.30;1.00;;;;;;5040710;28;20438;-82
2023/10/18 00:36:17;;;;;;;10.43;4.80;;;4.20;1.00;;;;;;5041371;28;20444;-82
2023/10/18 00:38:48;;;;;;;7.07;4.50;;;4.30;1.00;;;;;;5056620;28;20459;-82
2023/10/18 00:41:42;;;;;;;11.20;5.33;;;4.30;1.00;;;;;;5037262;28;20794;-82
2023/10/18 00:44:11;;;;;;;7.83;4.60;;;4.20;1.00;;;;;;5041864;28;20450;-82
2023/10/18 00:46:41;;;;;;;6.33;4.30;;;4.30;1.00;;;;;;5046388;28;20415;-82
2023/10/18 00:49:14;;;;;;;12.60;4.57;;;4.20;1.00;;;;;;5040727;28;20446;-82
2023/10/18 00:51:49;;;;;;;9.90;5.00;;;4.20;1.00;;;;;;5045249;28;20418;-82
2023/10/18 00:54:19;;;;;;;10.83;4.53;;;4.20;1.00;;;;;;5043929;28;20416;-82
2023/10/18 00:56:47;;;;;;;14.17;4.90;;;4.10;1.00;;;;;;5043324;28;20441;-84
2023/10/18 00:59:49;;;;;;;10.30;4.70;;;4.10;1.00;;;;;;5043584;28;20442;-82
2023/10/18 01:02:49;;;;;;;6.47;4.53;;;4.10;1.00;;;;;;5044145;28;20453;-83
2023/10/18 01:05:17;;;;;;;6.03;4.30;;;4.10;1.00;;;;;;5039250;28;20398;-82
2023/10/18 01:08:07;;;;;;;9.47;4.87;;;4.10;1.00;;;;;;5045806;28;20937;-82
2023/10/18 01:10:51;;;;;;;7.73;4.77;;;4.10;1.00;;;;;;5030971;28;20619;-82
2023/10/18 01:13:20;;;;;;;7.27;4.60;;;4.00;1.00;;;;;;5028812;28;20466;-82
2023/10/18 01:15:46;;;;;;;7.30;4.53;;;4.00;1.00;;;;;;5035671;28;20443;-82
2023/10/18 01:18:18;;;;;;;9.57;4.93;;;4.00;1.00;;;;;;5029798;28;20567;-82
2023/10/18 01:20:46;;;;;;;8.17;5.27;;;4.00;1.00;;;;;;5039140;28;20489;-82
2023/10/18 01:23:17;;;;;;;11.77;5.63;;;4.00;1.00;;;;;;5041481;28;20881;-82
2023/10/18 01:25:47;;;;;;;12.67;5.27;;;3.90;1.00;;;;;;5034990;28;20513;-82
2023/10/18 01:28:17;;;;;;;7.43;4.60;;;;;;;;;;5037277;28;20532;-82
2023/10/18 01:30:48;;;;;;;8.60;5.10;;;3.90;1.00;;;;;;5038521;28;20758;-82
2023/10/18 01:33:17;;;;;;;8.13;4.80;;;3.90;1.00;;;;;;5031938;28;20422;-82
2023/10/18 01:35:50;;;;;;;8.63;4.87;;;3.80;1.00;;;;;;5028324;28;20418;-82
2023/10/18 01:38:19;;;;;;;10.67;5.30;;;3.70;1.00;;;;;;5044159;28;20942;-82
2023/10/18 01:40:52;;;;;;;12.60;5.70;;;3.70;1.00;;;;;;5043108;28;20406;-73
2023/10/18 01:43:18;;;;;;;9.83;5.20;;;3.70;1.00;;;;;;5035306;28;20442;-72
2023/10/18 01:45:48;;;;;;;7.40;4.30;;;3.70;1.00;;;;;;5035786;28;20554;-73
2023/10/18 01:48:17;;;;;;;10.40;5.07;;;3.70;1.00;;;;;;5043623;28;20454;-72
2023/10/18 01:50:45;;;;;;;11.73;4.70;;;3.60;1.00;;;;;;5044080;28;20902;-73
2023/10/18 01:53:18;;;;;;;11.97;5.67;;;3.60;1.00;;;;;;5038278;28;20477;-73
2023/10/18 01:55:51;;;;;;;7.73;5.30;;;3.60;1.00;;;;;;5036459;28;20427;-82
2023/10/18 01:58:30;;;;;;;9.30;5.17;;;3.60;1.00;;;;;;5048314;28;20410;-83
2023/10/18 02:01:17;;;;;;;15.03;5.60;;;3.60;1.00;;;;;;5030796;28;20412;-83
2023/10/18 02:03:50;;;;;;;9.40;5.37;;;3.60;1.00;;;;;;5019867;28;20517;-82
2023/10/18 02:06:36;;;;;;;5.93;4.70;;;3.50;1.00;;;;;;5038634;28;20419;-82
2023/10/18 02:09:17;;;;;;;10.27;4.90;;;3.50;1.00;;;;;;5028116;28;20480;-83
2023/10/18 02:11:47;;;;;;;9.90;5.10;;;3.40;1.00;;;;;;5025180;28;20789;-73
2023/10/18 02:14:13;;;;;;;8.23;5.25;;;3.50;1.00;;;;;;5028541;28;20427;-73
2023/10/18 02:16:41;;;;;;;6.23;4.53;;;3.50;1.00;;;;;;5059507;28;20274;-72
2023/10/18 02:19:08;;;;;;;13.90;5.50;;;3.50;1.00;;;;;;5042966;28;21016;-73
2023/10/18 02:21:36;;;;;;;17.57;6.93;;;3.40;1.00;;;;;;5032704;28;20435;-73
2023/10/18 02:24:02;;;;;;;12.23;6.63;;;3.40;1.00;;;;;;5033965;28;20433;-73
2023/10/18 02:26:31;;;;;;;10.33;5.40;;;3.30;1.00;;;;;;5030951;28;20426;-73
2023/10/18 02:29:05;;;;;;;9.93;5.27;;;3.40;1.00;;;;;;5038804;28;20188;-73
2023/10/18 02:31:33;;;;;;;9.27;5.45;;;3.30;1.00;;;;;;5031983;28;20418;-72
2023/10/18 02:34:03;;;;;;;9.27;5.10;;;3.40;1.00;;;;;;5050844;28;20684;-73
2023/10/18 02:36:38;;;;;;;8.40;5.33;;;3.40;1.00;;;;;;5043282;28;20418;-73
2023/10/18 02:39:06;;;;;;;9.80;4.53;;;3.40;1.00;;;;;;5039416;28;20408;-72
2023/10/18 02:41:36;;;;;;;6.47;5.00;;;3.40;1.00;;;;;;5034424;28;20419;-72
2023/10/18 02:44:10;;;;;;;6.00;4.70;;;3.40;1.00;;;;;;5047538;28;20769;-73
2023/10/18 02:46:36;;;;;;;9.53;5.20;;;3.40;1.00;;;;;;5045159;28;20771;-72
2023/10/18 02:49:01;;;;;;;8.70;5.20;;;3.40;1.00;;;;;;5033088;28;20489;-73
2023/10/18 02:51:30;;;;;;;9.63;4.90;;;3.40;1.00;;;;;;5044671;28;20616;-72
2023/10/18 02:56:40;;;;;;;8.90;5.18;;;3.40;1.00;;;;;;5036203;28;20418;-83
2023/10/18 02:59:09;;;;;;;6.75;4.95;;;3.40;1.00;;;;;;5029659;28;20214;-82
2023/10/18 03:01:42;;;;;;;6.85;5.20;;;3.40;1.00;;;;;;5044495;28;20619;-82
2023/10/18 03:04:09;;;;;;;9.68;5.50;;;3.40;1.00;;;;;;5035781;28;20632;-83
2023/10/18 03:06:38;;;;;;;8.17;5.33;;;3.50;1.00;;;;;;5046111;28;20182;-82
2023/10/18 03:09:05;;;;;;;23.93;8.17;;;3.50;1.00;;;;;;5041119;28;20458;-81
2023/10/18 03:11:32;;;;;;;8.57;5.20;;;3.50;1.00;;;;;;5029242;28;20777;-83
2023/10/18 03:14:48;;;;;;;10.33;5.50;;;4.50;1.00;;;;;;5033137;28;20915;-82
2023/10/18 03:17:40;;;;;;;10.37;5.00;;;3.50;1.00;;;;;;5031748;28;20496;-82
2023/10/18 03:20:55;;;;;;;7.90;5.17;;;3.40;1.00;;;;;;5026014;28;20428;-82
2023/10/18 03:24:00;;;;;;;9.13;5.43;;;3.40;1.00;;;;;;5031891;28;20443;-82
2023/10/18 03:26:38;;;;;;;8.70;4.90;;;3.40;1.00;;;;;;5019980;28;20458;-82
2023/10/18 03:29:17;;;;;;;7.87;4.77;;;4.70;1.00;;;;;;5021591;28;20262;-82
2023/10/18 03:32:30;;;;;;;11.90;5.68;;;3.30;1.00;;;;;;5042299;28;20410;-82
2023/10/18 03:34:59;;;;;;;5.93;4.73;;;3.20;1.00;;;;;;5031853;28;20164;-83
2023/10/18 03:37:30;;;;;;;11.77;4.85;;;3.20;1.00;;;;;;5041681;28;20421;-83
2023/10/18 03:40:36;;;;;;;14.75;5.63;;;3.20;1.00;;;;;;5039875;28;20254;-83
2023/10/18 03:43:11;;;;;;;9.15;5.45;;;3.20;1.00;;;;;;5032106;28;20183;-79
2023/10/18 03:48:54;;;;;;;15.02;5.22;;;3.20;1.00;;;;;;5031018;28;20195;-80
2023/10/18 03:52:06;;;;;;;8.65;5.32;;;3.20;1.00;;;;;;5038706;28;20646;-80
2023/10/18 03:54:44;;;;;;;8.40;5.25;;;3.20;1.00;;;;;;5034543;28;20172;-80
2023/10/18 04:00:46;;;;;;;8.98;5.28;;;3.10;1.00;;;;;;5044595;28;20226;-83
2023/10/18 04:06:35;;;;;;;8.80;5.10;;;3.00;1.00;;;;;;5036114;28;20584;-86
2023/10/18 04:09:29;;;;;;;8.70;5.25;;;2.90;1.00;;;;;;5040125;28;20191;-86
2023/10/18 04:12:07;;;;;;;7.78;5.28;;;3.00;1.00;;;;;;5022985;28;20180;-81
2023/10/18 04:14:55;;;;;;;8.20;5.40;;;3.00;1.00;;;;;;5043475;28;20230;-81
2023/10/18 04:22:46;;;;;;;11.85;5.80;;;2.90;1.00;;;;;;5029773;28;20178;-80
2023/10/18 04:25:27;;;;;;;12.60;5.97;;;;;;;;;;5046638;28;20673;-80
2023/10/18 04:28:00;;;;;;;12.27;5.60;;;3.00;1.00;;;;;;5029460;28;20196;-80
2023/10/18 04:30:30;;;;;;;13.85;6.63;;;3.00;1.00;;;;;;5029835;28;20180;-80
2023/10/18 04:33:12;;;;;;;18.35;7.20;;;3.00;1.00;;;;;;5032729;28;20179;-80
2023/10/18 04:35:56;;;;;;;13.10;6.47;;;3.00;1.00;;;;;;5051769;28;20176;-81
2023/10/18 04:39:11;;;;;;;10.60;5.72;;;3.00;1.00;;;;;;5039467;28;20219;-80
2023/10/18 04:41:38;;;;;;;11.50;6.32;;;3.00;1.00;;;;;;5036531;28;20376;-80
2023/10/18 04:44:05;;;;;;;9.63;5.63;;;3.00;1.00;;;;;;5028265;28;20639;-85
2023/10/18 04:46:32;;;;;;;8.70;5.55;;;3.00;1.00;;;;;;5038202;28;20188;-85
2023/10/18 04:52:01;;;;;;;6.82;5.05;;;3.10;1.00;;;;;;5042019;28;20200;-85
2023/10/18 04:55:06;;;;;;;8.55;5.72;;;3.20;1.00;;;;;;5056288;28;20183;-85
2023/10/18 04:58:00;;;;;;;12.48;6.10;;;3.20;1.00;;;;;;5030688;28;20262;-81
2023/10/18 05:01:07;;;;;;;12.17;6.10;;;3.20;1.00;;;;;;5044151;28;20175;-80
2023/10/18 05:03:44;;;;;;;9.88;6.15;;;3.20;1.00;;;;;;5038281;28;20419;-80
2023/10/18 05:06:42;;;;;;;12.73;6.70;;;3.30;1.00;;;;;;5030601;28;20204;-80
2023/10/18 05:09:08;;;;;;;11.65;6.18;;;3.30;1.00;;;;;;5042871;28;20450;-80
2023/10/18 05:14:42;;;;;;;9.93;5.93;;;3.40;1.00;;;;;;5039667;28;20435;-81
2023/10/18 05:17:17;;;;;;;10.80;6.40;;;3.40;1.00;;;;;;5039669;28;20337;-80
2023/10/18 05:19:47;;;;;;;8.45;5.88;;;3.50;1.00;;;;;;5044425;28;20194;-80
2023/10/18 05:22:35;;;;;;;10.40;5.40;;;3.50;1.00;;;;;;5047607;28;20322;-80
2023/10/18 05:28:24;;;;;;;10.03;6.10;;;3.60;1.00;;;;;;5023794;28;20467;-85
2023/10/18 05:35:00;;;;;;;11.30;6.20;;;3.60;1.00;;;;;;5036165;28;20160;-85
2023/10/18 05:37:59;;;;;;;8.87;6.47;;;3.60;1.00;;;;;;5026418;28;20433;-85
2023/10/18 05:43:29;;;;;;;8.63;5.77;;;3.70;1.00;;;;;;5049171;28;20487;-81
2023/10/18 05:46:03;;;;;;;8.30;5.80;;;3.70;1.00;;;;;;5024510;28;20439;-80
2023/10/18 05:48:47;;;;;;;9.18;5.97;;;3.70;1.00;;;;;;5055382;28;20943;-80
2023/10/18 05:51:26;;;;;;;13.40;6.97;;;3.70;1.00;;;;;;5044566;28;20957;-72
2023/10/18 05:53:59;;;;;;;11.43;6.23;;;3.70;1.00;;;;;;5033743;28;20433;-73
2023/10/18 05:56:33;;;;;;;82.20;30.10;;;3.80;1.00;;;;;;5034064;28;20419;-73
2023/10/18 06:02:01;;;;;;;24.27;8.50;;;3.80;1.00;;;;;;5033463;28;20418;-72
2023/10/18 06:04:37;;;;;;;11.67;6.73;;;3.70;1.00;;;;;;5039691;28;20433;-72
2023/10/18 06:07:10;;;;;;;11.50;6.43;;;3.70;1.00;;;;;;5045864;28;20434;-72
2023/10/18 06:12:24;;;;;;;11.90;7.10;;;3.80;1.00;;;;;;5033771;28;20267;-72
2023/10/18 06:14:57;;;;;;;8.60;5.53;;;3.80;1.00;;;;;;5033416;28;20918;-81
2023/10/18 06:17:25;;;;;;;18.02;6.88;;;3.90;1.00;;;;;;5033626;28;20765;-81
2023/10/18 06:20:30;;;;;;;12.10;6.67;;;3.90;1.00;;;;;;5036984;28;20184;-81
2023/10/18 06:23:09;;;;;;;19.47;7.53;;;4.00;1.00;;;;;;5052924;28;20408;-81
2023/10/18 06:25:36;;;;;;;17.83;6.63;;;4.00;1.00;;;;;;5036960;28;20483;-81
2023/10/18 06:28:07;;;;;;;12.07;6.70;;;4.10;1.00;;;;;;5032264;28;20469;-81
2023/10/18 06:30:42;;;;;;;11.90;6.40;;;4.10;1.00;;;;;;5035925;28;20431;-72
2023/10/18 06:33:12;;;;;;;16.50;7.80;;;4.10;1.00;;;;;;5035413;28;20433;-72
2023/10/18 06:35:42;;;;;;;14.10;6.40;;;4.20;1.00;;;;;;5032489;28;20425;-72
2023/10/18 06:38:10;;;;;;;10.53;5.97;;;4.20;1.00;;;;;;5039996;28;20799;-72
2023/10/18 06:43:30;;;;;;;16.10;6.93;;;4.40;1.00;;;;;;5035497;28;20413;-79
2023/10/18 06:45:59;;;;;;;15.73;7.00;;;4.40;1.00;;;;;;5034241;28;20418;-81
2023/10/18 06:48:30;;;;;;;12.20;6.80;;;4.40;1.00;;;;;;5034105;28;20196;-81
2023/10/18 06:51:50;;;;;;;10.00;6.20;;;4.50;1.00;;;;;;5032568;28;20445;-81
2023/10/18 06:54:30;;;;;;;9.90;6.33;;;4.60;1.00;;;;;;5032285;28;20922;-81
2023/10/18 07:00:11;;;;;;;17.93;7.20;;;4.70;1.00;;;;;;4961254;28;20422;-73
2023/10/18 07:02:37;;;;;;;15.43;7.50;;;4.80;1.00;;;;;;4954476;28;20450;-73
2023/10/18 07:05:04;;;;;;;13.30;7.83;;;4.90;1.00;;;;;;4952710;28;20435;-72
2023/10/18 07:07:31;;;;;;;20.50;7.83;;;5.00;1.00;;;;;;4966032;28;20826;-73
2023/10/18 07:09:57;;;;;;;24.30;8.80;;;5.10;1.00;;;;;;4952253;28;20434;-72
2023/10/18 07:12:26;;;;;;;14.20;7.50;;;5.20;1.00;;;;;;4954350;28;21591;-72
2023/10/18 07:14:55;;;;;;;14.90;7.17;;;5.40;1.00;;;;;;4959229;28;20508;-72
2023/10/18 07:17:24;;;;;;;10.47;5.93;;;5.70;1.00;;;;;;4972699;28;20426;-72
2023/10/18 07:19:55;;;;;;;19.57;6.50;;;5.70;1.00;;;;;;4954444;28;20434;-72
2023/10/18 07:22:39;;;;;;;7.03;4.07;;;5.80;1.00;;;;;;4972480;28;20931;-72
2023/10/18 07:25:08;;;;;;;9.67;4.77;;;6.00;1.00;;;;;;4961068;28;20521;-73
2023/10/18 07:27:36;;;;;;;8.77;5.27;;;6.20;1.00;;;;;;4954134;28;20471;-74
2023/10/18 07:30:03;;;;;;;12.03;6.70;;;6.30;1.00;;;;;;4971721;28;20445;-73
2023/10/18 07:32:29;;;;;;;15.70;7.07;;;6.50;1.00;;;;;;4953366;28;20438;-76
2023/10/18 07:35:00;;;;;;;11.10;6.03;;;6.60;1.00;;;;;;5037575;28;20426;-75
2023/10/18 07:37:40;;;;;;;13.77;6.20;;;6.80;1.00;;;;;;5046148;28;20222;-76
2023/10/18 07:40:21;;;;;;;17.23;6.70;;;6.90;1.00;;;;;;5022063;28;20451;-75
2023/10/18 07:42:51;;;;;;;11.97;6.57;;;7.00;1.00;;;;;;5033102;28;20415;-77
2023/10/18 07:45:21;;;;;;;13.83;6.70;;;7.20;1.00;;;;;;5034304;28;20760;-72
2023/10/18 07:47:53;;;;;;;12.27;6.70;;;7.40;1.00;;;;;;5028819;28;20837;-73
2023/10/18 07:50:41;;;;;;;15.47;7.00;;;7.50;1.00;;;;;;5031804;28;20427;-74
2023/10/18 07:53:11;;;;;;;13.10;7.10;;;7.70;1.00;;;;;;5033098;28;20472;-73
2023/10/18 07:55:37;;;;;;;13.30;5.90;;;8.70;1.00;;;;;;5045542;28;20427;-73
2023/10/18 07:58:17;;;;;;;16.33;7.80;;;8.10;1.00;;;;;;5038040;28;20509;-73
2023/10/18 08:03:51;;;;;;;12.90;6.70;;;8.40;1.00;;;;;;5032139;28;20445;-79
2023/10/18 08:06:16;;;;;;;14.90;6.30;;;8.50;1.00;;;;;;5022047;28;20477;-79
2023/10/18 08:09:03;;;;;;;10.13;6.10;;;8.50;1.00;;;;;;5028372;28;20459;-80
2023/10/18 08:11:44;;;;;;;16.20;6.03;;;8.60;1.00;;;;;;5040439;28;20424;-79
2023/10/18 08:14:24;;;;;;;8.80;5.53;;;8.70;1.00;;;;;;5046787;28;20411;-79
2023/10/18 08:17:29;;;;;;;9.97;5.87;;;8.90;1.00;;;;;;5047362;28;20446;-76
2023/10/18 08:20:17;;;;;;;16.33;6.30;;;8.90;1.00;;;;;;5042425;28;20461;-76
2023/10/18 08:22:39;;;;;;;12.00;5.77;;;9.20;1.00;;;;;;5042620;28;20413;-76
2023/10/18 08:26:03;;;;;;;14.53;6.90;;;9.30;1.00;;;;;;5039766;28;20439;-77
2023/10/18 08:28:39;;;;;;;9.17;5.57;;;9.30;1.00;;;;;;5029889;28;20283;-75
2023/10/18 08:31:35;;;;;;;13.30;6.83;;;9.50;1.00;;;;;;5036236;28;20428;-76
2023/10/18 08:34:05;;;;;;;10.00;5.57;;;9.60;1.00;;;;;;5038047;28;20413;-76
2023/10/18 08:36:35;;;;;;;14.10;6.47;;;9.70;1.00;;;;;;5038638;28;20448;-76
2023/10/18 08:39:02;;;;;;;7.67;5.43;;;9.90;1.00;;;;;;5039860;28;20443;-76
2023/10/18 08:42:08;;;;;;;10.40;5.70;;;9.90;1.00;;;;;;5038994;28;20429;-76
2023/10/18 08:44:55;;;;;;;11.23;5.77;;;10.10;1.00;;;;;;5033488;28;20431;-76
2023/10/18 08:47:39;;;;;;;10.10;5.73;;;10.20;1.00;;;;;;5033464;28;20487;-79
2023/10/18 08:50:08;;;;;;;11.40;5.73;;;10.30;1.00;;;;;;5045926;28;20421;-79
2023/10/18 08:52:39;;;;;;;13.10;5.90;;;10.40;1.00;;;;;;5038046;28;20423;-79
2023/10/18 08:55:43;;;;;;;12.70;5.67;;;10.50;1.00;;;;;;5045357;28;21274;-79
2023/10/18 08:58:17;;;;;;;12.13;6.20;;;10.50;1.00;;;;;;5051321;28;20417;-79
2023/10/18 09:03:14;;;;;;;13.20;5.97;;;10.80;1.00;;;;;;5040955;28;20427;-76
2023/10/18 09:05:40;;;;;;;12.73;5.80;;;10.80;1.00;;;;;;5044773;28;20449;-76
2023/10/18 09:08:19;;;;;;;17.03;6.97;;;10.90;1.00;;;;;;5042362;28;20973;-77
2023/10/18 09:10:54;;;;;;;8.00;5.50;;;11.00;1.00;;;;;;5023533;28;21411;-76
2023/10/18 09:18:26;;;;;;;10.13;5.50;;;11.40;1.00;;;;;;5036370;28;20929;-80
2023/10/18 09:20:55;;;;;;;11.53;5.60;;;11.60;1.00;;;;;;5026737;28;20446;-80
2023/10/18 09:23:25;;;;;;;11.77;6.10;;;11.80;1.00;;;;;;5041426;28;20399;-79
2023/10/18 09:26:18;;;;;;;10.17;6.50;;;11.90;1.00;;;;;;5036655;28;20757;-79
2023/10/18 09:28:47;;;;;;;10.30;5.57;;;12.20;1.00;;;;;;5023063;28;20523;-79
2023/10/18 09:31:23;;;;;;;9.87;5.33;;;12.40;1.00;;;;;;5036658;28;20415;-79
2023/10/18 09:33:58;;;;;;;9.37;5.23;;;12.50;1.00;;;;;;5045177;28;20434;-79
2023/10/18 09:36:56;;;;;;;9.50;4.70;;;12.40;1.00;;;;;;5026431;28;20456;-81
2023/10/18 09:40:05;;;;;;;8.00;5.17;;;12.40;1.00;;;;;;5043551;28;20398;-82
2023/10/18 09:42:54;;;;;;;6.90;4.67;;;12.30;1.00;;;;;;5039720;28;20423;-80
2023/10/18 09:45:41;;;;;;;8.50;5.30;;;12.30;1.00;;;;;;5025539;28;20948;-81
2023/10/18 09:48:11;;;;;;;16.90;6.30;;;12.40;1.00;;;;;;5032357;28;20455;-76
2023/10/18 09:50:42;;;;;;;9.23;5.67;;;12.40;1.00;;;;;;5033757;28;20427;-76
2023/10/18 09:53:22;;;;;;;16.23;6.60;;;12.50;1.00;;;;;;5037538;28;21078;-79
2023/10/18 09:56:02;;;;;;;7.97;5.27;;;12.50;1.00;;;;;;5028212;28;21083;-76
2023/10/18 09:58:33;;;;;;;15.70;5.97;;;12.70;1.00;;;;;;5047242;28;20425;-77
2023/10/18 10:01:13;;;;;;;48.33;18.00;;;13.00;1.00;;;;;;5033693;28;20426;-77
2023/10/18 10:03:52;;;;;;;24.30;8.40;;;13.10;1.00;;;;;;5044673;28;20920;-77
2023/10/18 10:06:23;;;;;;;12.20;6.20;;;13.20;1.00;;;;;;5027639;28;20477;-76
2023/10/18 10:09:08;;;;;;;18.33;7.70;;;13.30;1.00;;;;;;5031097;28;20445;-76
2023/10/18 10:11:37;;;;;;;14.10;5.73;;;13.50;1.00;;;;;;5042461;28;20418;-76
2023/10/18 10:14:07;;;;;;;16.53;6.43;;;13.60;1.00;;;;;;5032432;28;20430;-77
2023/10/18 10:17:05;;;;;;;12.60;5.63;;;13.80;1.00;;;;;;5032484;28;20523;-80
2023/10/18 10:19:41;;;;;;;10.80;5.43;;;13.90;1.00;;;;;;5035862;28;20427;-80
2023/10/18 10:22:14;;;;;;;13.43;5.63;;;14.00;1.00;;;;;;5031099;28;20395;-80
2023/10/18 10:24:45;;;;;;;13.83;5.27;;;14.00;1.00;;;;;;5029822;28;20434;-81
2023/10/18 10:32:59;;;;;;;14.13;4.00;;;14.10;1.00;;;;;;5015521;28;20436;-81
2023/10/18 10:35:32;;;;;;;8.40;4.00;;;14.20;1.00;;;;;;5043533;28;20417;-82
2023/10/18 10:38:13;;;;;;;6.30;4.30;;;14.20;1.00;;;;;;5029577;28;20423;-81
2023/10/18 10:40:44;;;;;;;14.60;4.63;;;14.20;1.00;;;;;;5031673;28;20386;-81
2023/10/18 10:44:06;;;;;;;12.67;4.43;;;14.30;1.00;;;;;;5033002;28;20431;-81
2023/10/18 10:46:41;;;;;;;8.73;3.93;;;14.30;1.00;;;;;;5026273;28;20393;-78
2023/10/18 10:49:44;;;;;;;9.70;3.83;;;14.30;1.00;;;;;;5031824;28;21102;-77
2023/10/18 10:52:29;;;;;;;4.23;3.00;;;14.30;1.00;;;;;;5033375;28;20501;-77
2023/10/18 10:55:25;;;;;;;10.03;3.63;;;14.50;1.00;;;;;;5025939;28;20441;-77
2023/10/18 10:57:55;;;;;;;9.67;3.70;;;14.60;1.00;;;;;;4972713;28;20422;-77
2023/10/18 11:00:38;;;;;;;12.30;4.23;;;14.70;1.00;;;;;;4979686;28;20796;-76
2023/10/18 11:03:33;;;;;;;7.33;3.20;;;14.80;1.00;;;;;;4973286;28;20431;-77
2023/10/18 11:06:20;;;;;;;15.63;4.50;;;14.90;1.00;;;;;;4982752;28;20387;-78
2023/10/18 11:08:59;;;;;;;6.53;3.10;;;15.00;1.00;;;;;;4967286;28;20487;-77
2023/10/18 11:11:26;;;;;;;8.27;3.70;;;15.10;1.00;;;;;;4986781;28;20440;-78
2023/10/18 11:13:56;;;;;;;9.57;3.40;;;15.30;1.00;;;;;;4970340;28;20403;-78
2023/10/18 11:16:24;;;;;;;14.50;4.23;;;15.20;1.00;;;;;;4976018;28;20441;-78
2023/10/18 11:18:52;;;;;;;5.30;3.00;;;15.20;1.00;;;;;;4979290;28;20449;-78
2023/10/18 11:21:42;;;;;;;7.57;3.30;;;15.20;1.00;;;;;;4970434;28;20482;-78
2023/10/18 11:24:21;;;;;;;3.30;2.90;;;15.20;1.00;;;;;;4970950;28;20547;-77
2023/10/18 11:26:53;;;;;;;5.10;2.67;;;15.40;1.00;;;;;;4971903;28;20792;-77
2023/10/18 11:29:25;;;;;;;2.73;2.53;;;15.60;1.00;;;;;;4970747;28;20455;-77
2023/10/18 11:31:59;;;;;;;4.50;2.90;;;15.70;1.00;;;;;;4971494;28;20423;-78
2023/10/18 11:34:40;;;;;;;3.60;2.73;;;15.80;1.00;;;;;;5005734;28;20489;-75
2023/10/18 11:37:08;;;;;;;5.30;2.97;;;15.90;1.00;;;;;;5034964;28;20496;-75
2023/10/18 11:39:40;;;;;;;10.93;2.90;;;16.00;1.00;;;;;;5042034;28;20411;-75
2023/10/18 11:42:06;;;;;;;5.37;2.40;;;16.10;1.00;;;;;;5041953;28;20429;-75
2023/10/18 11:44:36;;;;;;;4.63;2.77;;;16.20;1.00;;;;;;5044394;28;20496;-75
2023/10/18 11:47:18;;;;;;;5.37;2.40;;;16.30;1.00;;;;;;5027384;28;20653;-75
2023/10/18 11:49:45;;;;;;;7.53;2.57;;;16.50;1.00;;;;;;5037733;28;20437;-75
2023/10/18 11:52:25;;;;;;;7.53;3.27;;;16.60;1.00;;;;;;5039506;28;20417;-76
2023/10/18 11:55:08;;;;;;;3.87;2.80;;;16.60;1.00;;;;;;5026697;28;20437;-75
2023/10/18 11:57:40;;;;;;;5.23;3.07;;;16.70;1.00;;;;;;5026906;28;20410;-75
2023/10/18 12:02:49;;;;;;;3.90;2.27;;;16.80;1.00;;;;;;5036239;28;20919;-75
2023/10/18 12:05:15;;;;;;;2.80;2.20;;;16.80;1.00;;;;;;5049506;28;20433;-75
2023/10/18 12:07:48;;;;;;;5.07;3.40;;;17.00;1.00;;;;;;5035895;28;20209;-75
2023/10/18 12:10:17;;;;;;;5.10;3.00;;;17.10;1.00;;;;;;5035207;28;20987;-75
2023/10/18 12:12:49;;;;;;;3.93;2.40;;;17.10;1.00;;;;;;5041196;28;20422;-75
2023/10/18 12:15:15;;;;;;;5.30;2.83;;;17.30;1.00;;;;;;5037748;28;20476;-75
2023/10/18 12:17:42;;;;;;;4.73;3.13;;;17.40;1.00;;;;;;5049711;28;20440;-75
2023/10/18 12:20:10;;;;;;;8.37;3.10;;;17.50;1.00;;;;;;5038012;28;20432;-75
2023/10/18 12:22:36;;;;;;;4.17;2.77;;;17.60;1.00;;;;;;5042849;28;20455;-75
2023/10/18 12:25:02;;;;;;;8.90;2.97;;;17.80;1.00;;;;;;5049654;28;20435;-75
2023/10/18 12:27:34;;;;;;;3.60;2.67;;;17.90;1.00;;;;;;5034878;28;20444;-75
2023/10/18 12:32:51;;;;;;;5.37;2.70;;;18.10;1.00;;;;;;5041665;28;20447;-76
2023/10/18 12:35:19;;;;;;;7.20;3.43;;;18.10;1.00;;;;;;5034557;28;20761;-74
2023/10/18 12:37:46;;;;;;;6.40;2.50;;;18.10;1.00;;;;;;5039498;28;20436;-74
2023/10/18 12:40:40;;;;;;;8.10;3.00;;;18.00;1.00;;;;;;5038034;28;20440;-75
2023/10/18 12:43:17;;;;;;;10.23;2.90;;;18.00;1.00;;;;;;5031501;28;20512;-75
2023/10/18 12:45:47;;;;;;;5.53;2.73;;;18.00;1.00;;;;;;5034657;28;20853;-75
2023/10/18 12:48:14;;;;;;;2.63;2.30;;;18.00;1.00;;;;;;5040189;28;20456;-79
2023/10/18 12:50:46;;;;;;;6.40;3.03;;;17.90;1.00;;;;;;5039120;28;20500;-77
2023/10/18 12:54:04;;;;;;;10.17;2.97;;;17.80;1.00;;;;;;5034781;28;20401;-83
2023/10/18 13:05:53;;;;;;;8.80;2.77;;;17.50;1.00;;;;;;5053495;28;20482;-82
2023/10/18 13:08:37;;;;;;;7.53;2.10;;;17.60;1.00;;;;;;5026553;28;20520;-82
2023/10/18 13:14:29;;;;;;;3.60;2.27;;;17.90;1.00;;;;;;5043581;28;20446;-82
2023/10/18 13:17:18;;;;;;;4.40;2.43;;;18.10;1.00;;;;;;5050569;28;20485;-82
2023/10/18 13:20:34;;;;;;;3.90;2.47;;;18.10;1.00;;;;;;5042709;28;20829;-82
2023/10/18 13:23:01;;;;;;;5.77;2.27;;;18.20;1.00;;;;;;5047395;28;20404;-83
2023/10/18 13:35:14;;;;;;;3.13;2.70;;;17.80;1.00;;;;;;5041236;28;20387;-83
2023/10/18 13:37:48;;;;;;;6.53;2.23;;;17.70;1.00;;;;;;5037609;28;20723;-82
2023/10/18 13:43:48;;;;;;;3.70;2.50;;;17.40;1.00;;;;;;5033984;28;20403;-83
2023/10/18 13:46:47;;;;;;;6.87;3.00;;;17.30;1.00;;;;;;5024372;28;20429;-83
2023/10/18 13:49:29;;;;;;;3.40;2.37;;;17.20;1.00;;;;;;5031663;28;20459;-83
2023/10/18 13:51:59;;;;;;;10.00;2.97;;;17.10;1.00;;;;;;5044094;28;20400;-83
2023/10/18 13:54:29;;;;;;;4.70;2.90;;;17.00;1.00;;;;;;5032099;28;20962;-83
2023/10/18 13:56:55;;;;;;;6.37;2.97;;;17.00;1.00;;;;;;5031704;28;20401;-79
2023/10/18 13:59:29;;;;;;;10.37;3.13;;;17.10;1.00;;;;;;5035482;28;20387;-79
2023/10/18 14:01:55;;;;;;;2.53;1.93;;;17.10;1.00;;;;;;5023904;28;20237;-80
2023/10/18 14:04:28;;;;;;;10.17;2.80;;;17.10;1.00;;;;;;5032122;28;20429;-78
2023/10/18 14:06:59;;;;;;;5.87;2.30;;;17.20;1.00;;;;;;5036233;28;20179;-79
2023/10/18 14:09:43;;;;;;;6.40;2.10;;;17.30;1.00;;;;;;5032475;28;20458;-79
2023/10/18 14:12:41;;;;;;;1.97;1.77;;;17.30;1.00;;;;;;5040805;28;20391;-79
2023/10/18 14:15:07;;;;;;;7.00;2.30;;;17.30;1.00;;;;;;5030936;28;20408;-79
2023/10/18 14:17:32;;;;;;;6.87;2.90;;;17.30;1.00;;;;;;5031728;28;20434;-76
2023/10/18 14:20:10;;;;;;;6.87;2.70;;;17.30;1.00;;;;;;5033745;28;20245;-77
2023/10/18 14:22:57;;;;;;;5.60;2.00;;;17.20;1.00;;;;;;5018894;28;20262;-79
2023/10/18 14:25:54;;;;;;;5.63;2.40;;;17.20;1.00;;;;;;5035265;28;20444;-78
2023/10/18 14:29:02;;;;;;;4.00;2.33;;;17.10;1.00;;;;;;5026260;28;20430;-79
2023/10/18 14:31:30;;;;;;;5.70;2.50;;;17.00;1.00;;;;;;5041371;28;20411;-80
2023/10/18 14:34:05;;;;;;;2.43;2.17;;;16.90;1.00;;;;;;5034792;28;20393;-79
2023/10/18 14:36:32;;;;;;;4.80;2.53;;;16.70;1.00;;;;;;5038452;28;20393;-80
2023/10/18 14:39:06;;;;;;;6.70;2.13;;;16.70;1.00;;;;;;5052141;28;20490;-80
2023/10/18 14:41:47;;;;;;;5.60;2.27;;;16.60;1.00;;;;;;5035789;28;20399;-79
2023/10/18 14:44:13;;;;;;;3.70;2.33;;;16.50;1.00;;;;;;5034354;28;20432;-79
2023/10/18 14:46:47;;;;;;;2.83;2.00;;;16.50;1.00;;;;;;5034399;28;20397;-79
2023/10/18 14:49:13;;;;;;;10.83;3.07;;;16.50;1.00;;;;;;5030831;28;20255;-77
2023/10/18 14:51:44;;;;;;;8.17;2.87;;;16.50;1.00;;;;;;5021853;28;20416;-77
2023/10/18 14:54:23;;;;;;;3.53;2.27;;;16.50;1.00;;;;;;5031057;28;20454;-78
2023/10/18 14:56:59;;;;;;;11.00;2.00;;;16.40;1.00;;;;;;5044037;28;20421;-79
2023/10/18 14:59:27;;;;;;;7.13;2.37;;;16.40;1.00;;;;;;5031214;28;20494;-80
2023/10/18 15:01:54;;;;;;;8.53;2.20;;;16.30;1.00;;;;;;5052947;28;20467;-79
2023/10/18 15:04:49;;;;;;;3.30;2.20;;;16.20;1.00;;;;;;5051733;28;20493;-78
2023/10/18 15:07:18;;;;;;;3.10;2.40;;;16.10;1.00;;;;;;5038220;28;20863;-78
2023/10/18 15:09:47;;;;;;;8.50;2.70;;;15.90;1.00;;;;;;5030337;28;20464;-79
2023/10/18 15:12:13;;;;;;;6.03;2.17;;;15.90;1.00;;;;;;5050287;28;20896;-78
2023/10/18 15:14:39;;;;;;;5.63;2.57;;;15.80;1.00;;;;;;5042141;28;20481;-79
2023/10/18 15:17:05;;;;;;;9.40;2.70;;;15.70;1.00;;;;;;5060258;28;20192;-79
2023/10/18 15:19:31;;;;;;;5.63;2.30;;;15.60;1.00;;;;;;5031776;28;20209;-79